sensor_id;sensor_type;location;lat;lon;timestamp;P1;durP1;ratioP1;P2;durP2;ratioP2
42760;SDS011;31672;47.638;19.026;2023-02-08T00:00:44;28.30;;;12.70;;
42760;SDS011;31672;47.638;19.026;2023-02-08T00:05:47;44.07;;;16.50;;
42760;SDS011;31672;47.638;19.026;2023-02-08T00:10:51;37.87;;;18.17;;
42760;SDS011;31672;47.638;19.026;2023-02-08T00:15:54;49.53;;;22.03;;
42760;SDS011;31672;47.638;19.026;2023-02-08T00:20:57;39.03;;;16.23;;
42760;SDS011;31672;47.638;19.026;2023-02-08T00:26:00;29.53;;;12.20;;
42760;SDS011;31672;47.638;19.026;2023-02-08T00:31:03;29.50;;;11.80;;
42760;SDS011;31672;47.638;19.026;2023-02-08T00:36:08;19.47;;;9.20;;
42760;SDS011;31672;47.638;19.026;2023-02-08T00:41:13;18.93;;;8.23;;
42760;SDS011;31672;47.638;19.026;2023-02-08T00:46:16;17.83;;;8.33;;
42760;SDS011;31672;47.638;19.026;2023-02-08T00:51:19;15.60;;;7.97;;
42760;SDS011;31672;47.638;19.026;2023-02-08T00:56:22;13.53;;;6.17;;
42760;SDS011;31672;47.638;19.026;2023-02-08T01:01:25;11.57;;;4.80;;
42760;SDS011;31672;47.638;19.026;2023-02-08T01:06:28;14.63;;;7.20;;
42760;SDS011;31672;47.638;19.026;2023-02-08T01:11:31;13.03;;;6.40;;
42760;SDS011;31672;47.638;19.026;2023-02-08T01:16:34;10.10;;;5.43;;
42760;SDS011;31672;47.638;19.026;2023-02-08T01:21:38;13.73;;;7.27;;
42760;SDS011;31672;47.638;19.026;2023-02-08T01:26:43;24.10;;;10.43;;
42760;SDS011;31672;47.638;19.026;2023-02-08T01:31:46;16.67;;;8.20;;
42760;SDS011;31672;47.638;19.026;2023-02-08T01:36:49;19.60;;;9.17;;
42760;SDS011;31672;47.638;19.026;2023-02-08T01:41:52;16.03;;;8.13;;
42760;SDS011;31672;47.638;19.026;2023-02-08T01:46:56;17.03;;;8.93;;
42760;SDS011;31672;47.638;19.026;2023-02-08T01:52:03;16.60;;;8.33;;
42760;SDS011;31672;47.638;19.026;2023-02-08T01:57:15;18.03;;;9.17;;
42760;SDS011;31672;47.638;19.026;2023-02-08T02:02:20;25.23;;;10.10;;
42760;SDS011;31672;47.638;19.026;2023-02-08T02:07:25;15.67;;;6.90;;
42760;SDS011;31672;47.638;19.026;2023-02-08T02:12:31;16.77;;;8.90;;
42760;SDS011;31672;47.638;19.026;2023-02-08T02:17:35;12.67;;;6.43;;
42760;SDS011;31672;47.638;19.026;2023-02-08T02:39:22;17.17;;;7.70;;
42760;SDS011;31672;47.638;19.026;2023-02-08T02:45:20;17.27;;;8.37;;
42760;SDS011;31672;47.638;19.026;2023-02-08T03:00:32;18.00;;;8.60;;
42760;SDS011;31672;47.638;19.026;2023-02-08T03:05:35;18.87;;;9.90;;
42760;SDS011;31672;47.638;19.026;2023-02-08T03:16:28;22.30;;;10.03;;
42760;SDS011;31672;47.638;19.026;2023-02-08T03:27:51;17.63;;;8.30;;
42760;SDS011;31672;47.638;19.026;2023-02-08T03:33:12;18.83;;;8.67;;
42760;SDS011;31672;47.638;19.026;2023-02-08T03:38:25;17.87;;;8.43;;
42760;SDS011;31672;47.638;19.026;2023-02-08T03:43:39;12.07;;;6.80;;
42760;SDS011;31672;47.638;19.026;2023-02-08T03:48:58;37.10;;;14.10;;
42760;SDS011;31672;47.638;19.026;2023-02-08T03:54:07;44.73;;;17.07;;
42760;SDS011;31672;47.638;19.026;2023-02-08T03:59:23;46.97;;;17.07;;
42760;SDS011;31672;47.638;19.026;2023-02-08T04:04:33;39.03;;;17.37;;
42760;SDS011;31672;47.638;19.026;2023-02-08T04:09:45;24.70;;;10.57;;
42760;SDS011;31672;47.638;19.026;2023-02-08T04:14:48;21.40;;;10.37;;
42760;SDS011;31672;47.638;19.026;2023-02-08T04:19:51;15.73;;;7.73;;
42760;SDS011;31672;47.638;19.026;2023-02-08T04:24:54;22.20;;;10.17;;
42760;SDS011;31672;47.638;19.026;2023-02-08T04:29:57;12.07;;;5.97;;
42760;SDS011;31672;47.638;19.026;2023-02-08T04:35:01;14.47;;;6.97;;
42760;SDS011;31672;47.638;19.026;2023-02-08T04:40:04;12.53;;;6.30;;
42760;SDS011;31672;47.638;19.026;2023-02-08T04:45:08;19.17;;;7.73;;
42760;SDS011;31672;47.638;19.026;2023-02-08T04:50:11;16.23;;;7.33;;
42760;SDS011;31672;47.638;19.026;2023-02-08T04:55:14;17.27;;;8.23;;
42760;SDS011;31672;47.638;19.026;2023-02-08T05:00:17;17.57;;;7.90;;
42760;SDS011;31672;47.638;19.026;2023-02-08T05:05:20;13.57;;;7.07;;
42760;SDS011;31672;47.638;19.026;2023-02-08T05:10:23;17.60;;;8.70;;
42760;SDS011;31672;47.638;19.026;2023-02-08T05:15:26;30.80;;;14.90;;
42760;SDS011;31672;47.638;19.026;2023-02-08T05:20:29;25.27;;;10.70;;
42760;SDS011;31672;47.638;19.026;2023-02-08T05:25:34;18.47;;;8.30;;
42760;SDS011;31672;47.638;19.026;2023-02-08T05:30:40;21.60;;;9.13;;
42760;SDS011;31672;47.638;19.026;2023-02-08T05:35:44;23.83;;;9.73;;
42760;SDS011;31672;47.638;19.026;2023-02-08T05:40:47;23.00;;;10.10;;
42760;SDS011;31672;47.638;19.026;2023-02-08T05:45:50;23.37;;;10.43;;
42760;SDS011;31672;47.638;19.026;2023-02-08T05:50:54;17.03;;;6.03;;
42760;SDS011;31672;47.638;19.026;2023-02-08T05:55:58;21.30;;;8.53;;
42760;SDS011;31672;47.638;19.026;2023-02-08T06:01:06;24.30;;;9.63;;
42760;SDS011;31672;47.638;19.026;2023-02-08T06:06:14;19.57;;;9.40;;
42760;SDS011;31672;47.638;19.026;2023-02-08T06:11:17;29.83;;;12.43;;
42760;SDS011;31672;47.638;19.026;2023-02-08T06:16:20;42.67;;;19.13;;
42760;SDS011;31672;47.638;19.026;2023-02-08T06:21:23;29.03;;;12.90;;
42760;SDS011;31672;47.638;19.026;2023-02-08T06:26:26;22.37;;;9.80;;
42760;SDS011;31672;47.638;19.026;2023-02-08T06:31:29;21.97;;;9.40;;
42760;SDS011;31672;47.638;19.026;2023-02-08T06:36:32;19.23;;;7.87;;
42760;SDS011;31672;47.638;19.026;2023-02-08T06:41:35;23.97;;;7.87;;
42760;SDS011;31672;47.638;19.026;2023-02-08T06:46:38;27.57;;;11.40;;
42760;SDS011;31672;47.638;19.026;2023-02-08T06:51:41;23.13;;;9.50;;
42760;SDS011;31672;47.638;19.026;2023-02-08T06:56:44;21.23;;;8.37;;
42760;SDS011;31672;47.638;19.026;2023-02-08T07:01:47;13.83;;;6.77;;
42760;SDS011;31672;47.638;19.026;2023-02-08T07:06:50;14.30;;;6.70;;
42760;SDS011;31672;47.638;19.026;2023-02-08T07:11:53;18.50;;;8.63;;
42760;SDS011;31672;47.638;19.026;2023-02-08T07:16:56;21.93;;;10.67;;
42760;SDS011;31672;47.638;19.026;2023-02-08T07:21:59;23.17;;;10.10;;
42760;SDS011;31672;47.638;19.026;2023-02-08T07:27:10;16.87;;;9.03;;
42760;SDS011;31672;47.638;19.026;2023-02-08T07:32:17;20.57;;;9.63;;
42760;SDS011;31672;47.638;19.026;2023-02-08T07:37:20;15.30;;;8.30;;
42760;SDS011;31672;47.638;19.026;2023-02-08T07:42:23;11.93;;;7.37;;
42760;SDS011;31672;47.638;19.026;2023-02-08T07:47:26;17.33;;;10.13;;
42760;SDS011;31672;47.638;19.026;2023-02-08T07:52:29;13.33;;;7.10;;
42760;SDS011;31672;47.638;19.026;2023-02-08T07:57:33;10.47;;;6.53;;
42760;SDS011;31672;47.638;19.026;2023-02-08T08:02:36;12.17;;;6.73;;
42760;SDS011;31672;47.638;19.026;2023-02-08T08:07:39;8.87;;;5.83;;
42760;SDS011;31672;47.638;19.026;2023-02-08T08:12:42;11.67;;;6.47;;
42760;SDS011;31672;47.638;19.026;2023-02-08T08:17:45;8.17;;;6.00;;
42760;SDS011;31672;47.638;19.026;2023-02-08T08:22:48;10.77;;;6.83;;
42760;SDS011;31672;47.638;19.026;2023-02-08T08:27:52;10.30;;;6.67;;
42760;SDS011;31672;47.638;19.026;2023-02-08T08:32:55;9.57;;;5.70;;
42760;SDS011;31672;47.638;19.026;2023-02-08T08:37:58;10.23;;;5.90;;
42760;SDS011;31672;47.638;19.026;2023-02-08T08:43:01;11.97;;;6.83;;
42760;SDS011;31672;47.638;19.026;2023-02-08T08:48:04;8.47;;;5.70;;
42760;SDS011;31672;47.638;19.026;2023-02-08T08:53:08;10.37;;;6.57;;
42760;SDS011;31672;47.638;19.026;2023-02-08T08:58:11;11.67;;;7.53;;
42760;SDS011;31672;47.638;19.026;2023-02-08T09:03:14;10.37;;;6.87;;
42760;SDS011;31672;47.638;19.026;2023-02-08T09:08:17;15.17;;;9.63;;
42760;SDS011;31672;47.638;19.026;2023-02-08T09:13:20;13.47;;;8.50;;
42760;SDS011;31672;47.638;19.026;2023-02-08T09:18:23;19.23;;;12.17;;
42760;SDS011;31672;47.638;19.026;2023-02-08T09:23:26;14.23;;;9.23;;
42760;SDS011;31672;47.638;19.026;2023-02-08T09:28:29;13.83;;;8.67;;
42760;SDS011;31672;47.638;19.026;2023-02-08T09:33:32;16.27;;;8.67;;
42760;SDS011;31672;47.638;19.026;2023-02-08T09:38:36;10.53;;;7.07;;
42760;SDS011;31672;47.638;19.026;2023-02-08T09:49:16;13.23;;;7.63;;
42760;SDS011;31672;47.638;19.026;2023-02-08T09:54:27;12.87;;;8.60;;
42760;SDS011;31672;47.638;19.026;2023-02-08T09:59:57;12.77;;;7.73;;
42760;SDS011;31672;47.638;19.026;2023-02-08T10:05:07;14.80;;;7.83;;
42760;SDS011;31672;47.638;19.026;2023-02-08T10:10:20;14.07;;;8.20;;
42760;SDS011;31672;47.638;19.026;2023-02-08T10:15:32;10.97;;;6.80;;
42760;SDS011;31672;47.638;19.026;2023-02-08T10:31:46;10.70;;;6.40;;
42760;SDS011;31672;47.638;19.026;2023-02-08T10:37:30;9.67;;;6.13;;
42760;SDS011;31672;47.638;19.026;2023-02-08T10:42:37;10.30;;;6.43;;
42760;SDS011;31672;47.638;19.026;2023-02-08T10:52:55;14.37;;;10.20;;
42760;SDS011;31672;47.638;19.026;2023-02-08T10:57:58;11.10;;;7.10;;
42760;SDS011;31672;47.638;19.026;2023-02-08T11:03:39;14.13;;;6.93;;
42760;SDS011;31672;47.638;19.026;2023-02-08T11:08:36;8.77;;;5.50;;
42760;SDS011;31672;47.638;19.026;2023-02-08T11:14:07;13.47;;;8.20;;
42760;SDS011;31672;47.638;19.026;2023-02-08T11:19:38;25.50;;;11.63;;
42760;SDS011;31672;47.638;19.026;2023-02-08T11:25:29;11.83;;;6.80;;
42760;SDS011;31672;47.638;19.026;2023-02-08T11:30:36;18.47;;;9.10;;
42760;SDS011;31672;47.638;19.026;2023-02-08T11:35:39;12.20;;;6.93;;
42760;SDS011;31672;47.638;19.026;2023-02-08T11:40:43;9.57;;;5.43;;
42760;SDS011;31672;47.638;19.026;2023-02-08T11:45:47;10.43;;;7.03;;
42760;SDS011;31672;47.638;19.026;2023-02-08T11:50:52;9.90;;;6.53;;
42760;SDS011;31672;47.638;19.026;2023-02-08T11:56:00;11.30;;;7.40;;
42760;SDS011;31672;47.638;19.026;2023-02-08T12:01:20;14.13;;;7.17;;
42760;SDS011;31672;47.638;19.026;2023-02-08T12:06:38;10.70;;;6.60;;
42760;SDS011;31672;47.638;19.026;2023-02-08T12:23:28;11.20;;;6.67;;
42760;SDS011;31672;47.638;19.026;2023-02-08T12:34:18;10.83;;;6.33;;
42760;SDS011;31672;47.638;19.026;2023-02-08T12:45:44;11.17;;;6.30;;
42760;SDS011;31672;47.638;19.026;2023-02-08T12:56:37;10.57;;;6.10;;
42760;SDS011;31672;47.638;19.026;2023-02-08T13:07:49;9.57;;;5.77;;
42760;SDS011;31672;47.638;19.026;2023-02-08T13:12:40;14.57;;;6.83;;
42760;SDS011;31672;47.638;19.026;2023-02-08T13:17:54;14.20;;;7.53;;
42760;SDS011;31672;47.638;19.026;2023-02-08T13:23:44;51.60;;;15.50;;
42760;SDS011;31672;47.638;19.026;2023-02-08T13:28:55;15.32;;;7.88;;
42760;SDS011;31672;47.638;19.026;2023-02-08T13:34:07;21.83;;;9.30;;
42760;SDS011;31672;47.638;19.026;2023-02-08T13:40:02;19.40;;;8.43;;
42760;SDS011;31672;47.638;19.026;2023-02-08T13:44:50;39.70;;;11.10;;
42760;SDS011;31672;47.638;19.026;2023-02-08T13:49:59;42.10;;;13.80;;
42760;SDS011;31672;47.638;19.026;2023-02-08T14:00:34;14.70;;;7.73;;
42760;SDS011;31672;47.638;19.026;2023-02-08T14:11:18;11.53;;;7.10;;
42760;SDS011;31672;47.638;19.026;2023-02-08T14:32:52;20.27;;;10.40;;
42760;SDS011;31672;47.638;19.026;2023-02-08T14:48:46;11.73;;;6.77;;
42760;SDS011;31672;47.638;19.026;2023-02-08T14:58:57;43.00;;;17.80;;
42760;SDS011;31672;47.638;19.026;2023-02-08T15:04:17;28.27;;;12.83;;
42760;SDS011;31672;47.638;19.026;2023-02-08T15:09:22;30.47;;;15.77;;
42760;SDS011;31672;47.638;19.026;2023-02-08T15:14:38;32.90;;;14.63;;
42760;SDS011;31672;47.638;19.026;2023-02-08T15:19:42;31.23;;;15.17;;
42760;SDS011;31672;47.638;19.026;2023-02-08T15:24:53;49.63;;;21.93;;
42760;SDS011;31672;47.638;19.026;2023-02-08T15:30:00;29.10;;;14.30;;
42760;SDS011;31672;47.638;19.026;2023-02-08T15:35:03;22.97;;;12.27;;
42760;SDS011;31672;47.638;19.026;2023-02-08T15:40:19;23.67;;;12.80;;
42760;SDS011;31672;47.638;19.026;2023-02-08T15:45:25;26.20;;;12.60;;
42760;SDS011;31672;47.638;19.026;2023-02-08T15:50:32;21.30;;;11.03;;
42760;SDS011;31672;47.638;19.026;2023-02-08T15:55:38;22.00;;;10.57;;
42760;SDS011;31672;47.638;19.026;2023-02-08T16:00:51;31.03;;;15.37;;
42760;SDS011;31672;47.638;19.026;2023-02-08T16:05:58;32.87;;;14.87;;
42760;SDS011;31672;47.638;19.026;2023-02-08T16:21:30;108.20;;;39.93;;
42760;SDS011;31672;47.638;19.026;2023-02-08T16:26:48;138.18;;;49.20;;
42760;SDS011;31672;47.638;19.026;2023-02-08T16:32:29;108.30;;;39.40;;
42760;SDS011;31672;47.638;19.026;2023-02-08T16:37:40;77.07;;;28.73;;
42760;SDS011;31672;47.638;19.026;2023-02-08T16:42:44;79.43;;;33.03;;
42760;SDS011;31672;47.638;19.026;2023-02-08T16:47:53;72.07;;;33.40;;
42760;SDS011;31672;47.638;19.026;2023-02-08T16:53:09;60.43;;;26.40;;
42760;SDS011;31672;47.638;19.026;2023-02-08T16:58:13;59.10;;;23.93;;
42760;SDS011;31672;47.638;19.026;2023-02-08T17:03:18;62.70;;;25.23;;
42760;SDS011;31672;47.638;19.026;2023-02-08T17:08:21;48.67;;;21.67;;
42760;SDS011;31672;47.638;19.026;2023-02-08T17:13:24;53.83;;;23.90;;
42760;SDS011;31672;47.638;19.026;2023-02-08T17:18:30;47.60;;;23.47;;
42760;SDS011;31672;47.638;19.026;2023-02-08T17:23:36;45.33;;;21.40;;
42760;SDS011;31672;47.638;19.026;2023-02-08T17:28:39;43.13;;;19.90;;
42760;SDS011;31672;47.638;19.026;2023-02-08T17:33:42;68.70;;;27.57;;
42760;SDS011;31672;47.638;19.026;2023-02-08T17:38:46;56.53;;;23.63;;
42760;SDS011;31672;47.638;19.026;2023-02-08T17:43:49;93.60;;;38.83;;
42760;SDS011;31672;47.638;19.026;2023-02-08T17:48:54;62.43;;;30.10;;
42760;SDS011;31672;47.638;19.026;2023-02-08T17:54:02;63.33;;;27.10;;
42760;SDS011;31672;47.638;19.026;2023-02-08T17:59:06;61.67;;;30.80;;
42760;SDS011;31672;47.638;19.026;2023-02-08T18:04:10;49.07;;;24.93;;
42760;SDS011;31672;47.638;19.026;2023-02-08T18:09:14;68.07;;;31.23;;
42760;SDS011;31672;47.638;19.026;2023-02-08T18:14:17;54.67;;;25.40;;
42760;SDS011;31672;47.638;19.026;2023-02-08T18:19:21;45.53;;;21.50;;
42760;SDS011;31672;47.638;19.026;2023-02-08T18:24:25;46.73;;;21.27;;
42760;SDS011;31672;47.638;19.026;2023-02-08T18:29:29;63.10;;;25.80;;
42760;SDS011;31672;47.638;19.026;2023-02-08T18:34:32;66.80;;;29.30;;
42760;SDS011;31672;47.638;19.026;2023-02-08T18:39:35;64.27;;;26.17;;
42760;SDS011;31672;47.638;19.026;2023-02-08T18:44:39;65.20;;;28.20;;
42760;SDS011;31672;47.638;19.026;2023-02-08T18:49:42;67.07;;;25.23;;
42760;SDS011;31672;47.638;19.026;2023-02-08T18:54:45;62.70;;;25.87;;
42760;SDS011;31672;47.638;19.026;2023-02-08T18:59:48;81.40;;;28.77;;
42760;SDS011;31672;47.638;19.026;2023-02-08T19:04:52;70.27;;;28.73;;
42760;SDS011;31672;47.638;19.026;2023-02-08T19:09:54;62.20;;;25.50;;
42760;SDS011;31672;47.638;19.026;2023-02-08T19:14:58;72.87;;;27.33;;
42760;SDS011;31672;47.638;19.026;2023-02-08T19:20:01;74.77;;;30.97;;
42760;SDS011;31672;47.638;19.026;2023-02-08T19:25:04;52.00;;;24.07;;
42760;SDS011;31672;47.638;19.026;2023-02-08T19:30:08;49.57;;;22.60;;
42760;SDS011;31672;47.638;19.026;2023-02-08T19:35:12;44.97;;;21.97;;
42760;SDS011;31672;47.638;19.026;2023-02-08T19:40:15;45.70;;;19.30;;
42760;SDS011;31672;47.638;19.026;2023-02-08T19:45:20;46.10;;;20.80;;
42760;SDS011;31672;47.638;19.026;2023-02-08T19:50:23;41.07;;;17.83;;
42760;SDS011;31672;47.638;19.026;2023-02-08T19:55:26;35.10;;;16.60;;
42760;SDS011;31672;47.638;19.026;2023-02-08T20:00:29;28.73;;;14.27;;
42760;SDS011;31672;47.638;19.026;2023-02-08T20:05:34;33.10;;;13.90;;
42760;SDS011;31672;47.638;19.026;2023-02-08T20:10:38;35.13;;;16.23;;
42760;SDS011;31672;47.638;19.026;2023-02-08T20:15:42;22.83;;;12.00;;
42760;SDS011;31672;47.638;19.026;2023-02-08T20:20:56;29.03;;;13.97;;
42760;SDS011;31672;47.638;19.026;2023-02-08T20:26:06;30.10;;;13.17;;
42760;SDS011;31672;47.638;19.026;2023-02-08T20:31:15;31.63;;;13.87;;
42760;SDS011;31672;47.638;19.026;2023-02-08T20:36:23;40.50;;;17.57;;
42760;SDS011;31672;47.638;19.026;2023-02-08T20:41:29;38.90;;;18.73;;
42760;SDS011;31672;47.638;19.026;2023-02-08T20:46:34;33.50;;;16.73;;
42760;SDS011;31672;47.638;19.026;2023-02-08T20:51:37;37.13;;;16.97;;
42760;SDS011;31672;47.638;19.026;2023-02-08T20:56:40;37.97;;;15.27;;
42760;SDS011;31672;47.638;19.026;2023-02-08T21:01:43;34.60;;;15.13;;
42760;SDS011;31672;47.638;19.026;2023-02-08T21:06:48;32.87;;;14.53;;
42760;SDS011;31672;47.638;19.026;2023-02-08T21:11:52;31.63;;;13.87;;
42760;SDS011;31672;47.638;19.026;2023-02-08T21:16:55;33.03;;;14.60;;
42760;SDS011;31672;47.638;19.026;2023-02-08T21:22:00;37.37;;;16.37;;
42760;SDS011;31672;47.638;19.026;2023-02-08T21:27:04;82.53;;;37.60;;
42760;SDS011;31672;47.638;19.026;2023-02-08T21:32:07;40.67;;;18.67;;
42760;SDS011;31672;47.638;19.026;2023-02-08T21:37:10;44.10;;;19.00;;
42760;SDS011;31672;47.638;19.026;2023-02-08T21:42:13;32.47;;;14.63;;
42760;SDS011;31672;47.638;19.026;2023-02-08T21:47:16;35.67;;;15.37;;
42760;SDS011;31672;47.638;19.026;2023-02-08T21:52:19;29.97;;;13.47;;
42760;SDS011;31672;47.638;19.026;2023-02-08T21:57:41;24.13;;;11.77;;
42760;SDS011;31672;47.638;19.026;2023-02-08T22:02:44;31.70;;;15.33;;
42760;SDS011;31672;47.638;19.026;2023-02-08T22:07:52;27.47;;;12.17;;
42760;SDS011;31672;47.638;19.026;2023-02-08T22:12:58;35.70;;;15.27;;
42760;SDS011;31672;47.638;19.026;2023-02-08T22:18:01;36.47;;;15.93;;
42760;SDS011;31672;47.638;19.026;2023-02-08T22:23:05;31.70;;;15.77;;
42760;SDS011;31672;47.638;19.026;2023-02-08T22:28:08;29.50;;;14.00;;
42760;SDS011;31672;47.638;19.026;2023-02-08T22:33:11;33.37;;;15.73;;
42760;SDS011;31672;47.638;19.026;2023-02-08T22:38:14;57.10;;;24.13;;
42760;SDS011;31672;47.638;19.026;2023-02-08T22:43:17;38.70;;;16.87;;
42760;SDS011;31672;47.638;19.026;2023-02-08T22:48:20;47.83;;;17.57;;
42760;SDS011;31672;47.638;19.026;2023-02-08T22:53:23;38.43;;;16.17;;
42760;SDS011;31672;47.638;19.026;2023-02-08T22:58:26;32.87;;;16.13;;
42760;SDS011;31672;47.638;19.026;2023-02-08T23:03:29;39.00;;;15.87;;
42760;SDS011;31672;47.638;19.026;2023-02-08T23:08:33;33.67;;;14.13;;
42760;SDS011;31672;47.638;19.026;2023-02-08T23:13:36;38.37;;;16.33;;
42760;SDS011;31672;47.638;19.026;2023-02-08T23:18:40;35.77;;;13.57;;
42760;SDS011;31672;47.638;19.026;2023-02-08T23:23:44;36.13;;;14.97;;
42760;SDS011;31672;47.638;19.026;2023-02-08T23:28:49;36.43;;;15.10;;
42760;SDS011;31672;47.638;19.026;2023-02-08T23:33:57;36.63;;;14.20;;
42760;SDS011;31672;47.638;19.026;2023-02-08T23:39:01;37.63;;;14.00;;
42760;SDS011;31672;47.638;19.026;2023-02-08T23:44:05;40.30;;;14.33;;
42760;SDS011;31672;47.638;19.026;2023-02-08T23:49:08;47.10;;;18.43;;
42760;SDS011;31672;47.638;19.026;2023-02-08T23:54:11;54.63;;;18.10;;
42760;SDS011;31672;47.638;19.026;2023-02-08T23:59:14;35.90;;;12.57;;
